Time;durP1;ratioP1;P1;durP2;ratioP2;P2;SDS_P1;SDS_P2;PMS_P1;PMS_P2;Temp;Humidity;BMP_temperature;BMP_pressure;BME280_temperature;BME280_humidity;BME280_pressure;Samples;Min_cycle;Max_cycle;Signal;HPM_P1;HPM_P2
2022/06/23 00:01:57;;;;;;;0.00;0.00;;;15.90;78.30;;;;;;5064414;28;21262;-70
2022/06/23 00:04:25;;;;;;;0.00;0.00;;;15.80;77.90;;;;;;5048494;28;20049;-69
2022/06/23 00:06:59;;;;;;;0.10;0.10;;;15.70;78.50;;;;;;5049403;28;20126;-70
2022/06/23 00:09:43;;;;;;;0.00;0.00;;;15.70;78.70;;;;;;5048571;28;20037;-69
2022/06/23 00:12:18;;;;;;;0.00;0.00;;;15.60;78.50;;;;;;5048055;28;20056;-69
2022/06/23 00:14:53;;;;;;;0.00;0.00;;;15.60;78.40;;;;;;5048344;28;20048;-69
2022/06/23 00:17:32;;;;;;;0.25;0.25;;;15.60;78.80;;;;;;5049071;28;20516;-70
2022/06/23 00:20:15;;;;;;;0.00;0.00;;;15.60;78.90;;;;;;5048957;28;20588;-70
2022/06/23 00:22:55;;;;;;;0.00;0.00;;;15.50;79.20;;;;;;5048016;28;20055;-70
2022/06/23 00:25:34;;;;;;;0.05;0.05;;;15.50;79.40;;;;;;5048934;28;20482;-70
2022/06/23 00:28:01;;;;;;;0.00;0.00;;;15.50;79.30;;;;;;5048580;28;20128;-70
2022/06/23 00:30:37;;;;;;;0.00;0.00;;;15.40;79.20;;;;;;5048582;28;20064;-70
2022/06/23 00:33:14;;;;;;;0.00;0.00;;;15.40;79.60;;;;;;5048946;28;20036;-69
2022/06/23 00:35:40;;;;;;;0.00;0.00;;;15.30;79.80;;;;;;5047060;28;20078;-70
2022/06/23 00:38:24;;;;;;;0.00;0.00;;;15.30;79.50;;;;;;5048754;28;20045;-70
2022/06/23 00:40:50;;;;;;;0.00;0.00;;;15.30;80.00;;;;;;5048539;28;20049;-70
2022/06/23 00:43:18;;;;;;;0.00;0.00;;;15.30;80.20;;;;;;5047382;28;20097;-70
2022/06/23 00:45:55;;;;;;;0.00;0.00;;;15.30;79.80;;;;;;5042472;28;20045;-70
2022/06/23 00:48:29;;;;;;;0.00;0.00;;;15.30;80.50;;;;;;5051710;28;20107;-70
2022/06/23 00:51:15;;;;;;;0.00;0.00;;;15.40;80.80;;;;;;5032850;28;20045;-69
2022/06/23 00:54:26;;;;;;;0.00;0.00;;;15.40;81.30;;;;;;5046708;28;20052;-70
2022/06/23 00:57:01;;;;;;;0.10;0.10;;;15.40;81.20;;;;;;5050281;28;20049;-70
2022/06/23 00:59:51;;;;;;;0.00;0.00;;;15.50;80.80;;;;;;5039772;28;20585;-69
2022/06/23 01:02:26;;;;;;;0.00;0.00;;;15.50;80.90;;;;;;5050593;28;20041;-70
2022/06/23 01:05:20;;;;;;;0.00;0.00;;;15.50;80.50;;;;;;5051995;28;20040;-70
2022/06/23 01:08:18;;;;;;;0.00;0.00;;;15.50;80.40;;;;;;5052200;28;20758;-70
2022/06/23 01:10:48;;;;;;;0.00;0.00;;;15.50;80.90;;;;;;5049129;28;20498;-69
2022/06/23 01:13:52;;;;;;;0.00;0.00;;;15.50;80.40;;;;;;5051753;28;20045;-70
2022/06/23 01:16:27;;;;;;;0.00;0.00;;;15.50;80.40;;;;;;5052558;28;20045;-70
2022/06/23 01:19:39;;;;;;;0.00;0.00;;;15.50;80.70;;;;;;5052344;28;20100;-70
2022/06/23 01:22:15;;;;;;;0.00;0.00;;;15.40;80.40;;;;;;5033574;28;20052;-70
2022/06/23 01:25:04;;;;;;;0.10;0.10;;;15.40;80.70;;;;;;5051399;28;20262;-70
2022/06/23 01:28:03;;;;;;;0.00;0.00;;;15.30;80.80;;;;;;5053142;28;20041;-70
2022/06/23 01:30:36;;;;;;;0.00;0.00;;;15.40;81.10;;;;;;5052536;28;20055;-70
2022/06/23 01:33:14;;;;;;;0.00;0.00;;;15.30;80.60;;;;;;5052522;28;20077;-70
2022/06/23 01:36:07;;;;;;;0.00;0.00;;;15.30;80.60;;;;;;5052179;28;20073;-70
2022/06/23 01:38:55;;;;;;;0.00;0.00;;;15.40;81.20;;;;;;5035834;28;20068;-70
2022/06/23 01:41:43;;;;;;;0.00;0.00;;;15.40;81.10;;;;;;5052236;28;20048;-70
2022/06/23 01:44:32;;;;;;;0.00;0.00;;;15.30;81.00;;;;;;5051356;28;20056;-70
2022/06/23 01:47:00;;;;;;;0.00;0.00;;;15.30;81.30;;;;;;5049401;28;20048;-69
2022/06/23 01:49:37;;;;;;;0.00;0.00;;;15.40;81.30;;;;;;5051759;28;20045;-70
2022/06/23 01:52:11;;;;;;;0.00;0.00;;;15.40;81.50;;;;;;5052295;28;20497;-69
2022/06/23 01:54:38;;;;;;;0.00;0.00;;;15.40;81.50;;;;;;5050434;28;20048;-70
2022/06/23 01:57:41;;;;;;;0.00;0.00;;;15.40;81.40;;;;;;5052495;28;20472;-70
2022/06/23 02:00:18;;;;;;;0.00;0.00;;;15.30;81.20;;;;;;5042561;28;20048;-70
2022/06/23 02:02:56;;;;;;;0.00;0.00;;;15.30;81.10;;;;;;5048841;28;20091;-70
2022/06/23 02:05:45;;;;;;;0.08;0.08;;;15.30;81.40;;;;;;5051832;28;20500;-70
2022/06/23 02:08:26;;;;;;;0.00;0.00;;;15.30;81.60;;;;;;5051642;28;20057;-69
2022/06/23 02:11:13;;;;;;;0.00;0.00;;;15.30;81.30;;;;;;5051707;28;20049;-69
2022/06/23 02:14:11;;;;;;;0.00;0.00;;;15.20;81.60;;;;;;5050851;28;20060;-70
2022/06/23 02:16:55;;;;;;;0.00;0.00;;;15.30;81.40;;;;;;5051434;28;20045;-70
2022/06/23 02:19:25;;;;;;;0.10;0.10;;;15.20;81.40;;;;;;5031916;28;20065;-70
2022/06/23 02:21:54;;;;;;;0.00;0.00;;;15.30;81.50;;;;;;5045458;28;20115;-70
2022/06/23 02:24:25;;;;;;;0.00;0.00;;;15.20;81.40;;;;;;5049908;28;20510;-70
2022/06/23 02:27:17;;;;;;;0.00;0.00;;;15.20;81.10;;;;;;5051310;28;20091;-70
2022/06/23 02:29:47;;;;;;;;;;;15.20;81.30;;;;;;5051474;28;20045;-70
2022/06/23 02:32:18;;;;;;;0.00;0.00;;;15.20;81.10;;;;;;5050940;28;19981;-69
2022/06/23 02:34:57;;;;;;;0.00;0.00;;;15.20;81.40;;;;;;5051405;28;20543;-70
2022/06/23 02:37:54;;;;;;;0.00;0.00;;;15.30;81.40;;;;;;5051121;28;20033;-70
2022/06/23 02:40:27;;;;;;;0.00;0.00;;;15.20;81.50;;;;;;5033280;28;20060;-70
2022/06/23 02:43:00;;;;;;;0.00;0.00;;;15.20;81.30;;;;;;5051254;28;20041;-70
2022/06/23 02:46:03;;;;;;;0.00;0.00;;;15.10;81.50;;;;;;5033131;28;20069;-70
2022/06/23 02:48:35;;;;;;;0.00;0.00;;;15.10;81.80;;;;;;5051064;28;20486;-70
2022/06/23 02:51:31;;;;;;;0.00;0.00;;;15.10;81.50;;;;;;5050917;28;20053;-70
2022/06/23 02:54:21;;;;;;;0.00;0.00;;;15.10;81.40;;;;;;5049526;28;20041;-70
2022/06/23 02:57:06;;;;;;;0.00;0.00;;;15.10;81.50;;;;;;5051149;28;20040;-70
2022/06/23 02:59:39;;;;;;;0.00;0.00;;;15.10;81.60;;;;;;5050479;28;20063;-70
2022/06/23 03:02:36;;;;;;;0.00;0.00;;;15.10;81.50;;;;;;5051016;28;20041;-70
2022/06/23 03:05:42;;;;;;;0.00;0.00;;;15.10;81.60;;;;;;5051040;28;20098;-70
2022/06/23 03:08:36;;;;;;;0.00;0.00;;;15.10;82.00;;;;;;5043776;28;20048;-70
2022/06/23 03:11:19;;;;;;;0.00;0.00;;;15.10;81.80;;;;;;5028843;28;20060;-70
2022/06/23 03:13:55;;;;;;;0.00;0.00;;;15.10;81.60;;;;;;5048601;28;20494;-70
2022/06/23 03:16:45;;;;;;;0.00;0.00;;;15.00;81.70;;;;;;5041192;28;20055;-70
2022/06/23 03:19:19;;;;;;;0.00;0.00;;;15.10;81.70;;;;;;5040420;28;20067;-70
2022/06/23 03:21:50;;;;;;;0.00;0.00;;;15.00;81.90;;;;;;5050380;28;20056;-70
2022/06/23 03:24:28;;;;;;;0.00;0.00;;;15.10;81.80;;;;;;5050591;28;20052;-70
2022/06/23 03:27:14;;;;;;;0.00;0.00;;;15.10;81.80;;;;;;5050877;28;20041;-71
2022/06/23 03:29:47;;;;;;;0.00;0.00;;;15.10;81.60;;;;;;5049545;28;20457;-70
2022/06/23 03:32:21;;;;;;;0.00;0.00;;;15.10;81.80;;;;;;5050748;28;20676;-71
2022/06/23 03:35:21;;;;;;;0.00;0.00;;;15.10;81.80;;;;;;5050025;28;20048;-70
2022/06/23 03:38:04;;;;;;;0.00;0.00;;;15.10;81.70;;;;;;5050365;28;20490;-70
2022/06/23 03:43:33;;;;;;;0.00;0.00;;;15.10;81.80;;;;;;5050260;28;20370;-70
2022/06/23 03:46:17;;;;;;;0.00;0.00;;;15.10;81.70;;;;;;5049713;28;20525;-70
2022/06/23 03:48:54;;;;;;;0.00;0.00;;;15.10;81.70;;;;;;5050151;28;20068;-70
2022/06/23 03:51:32;;;;;;;0.00;0.00;;;15.10;81.70;;;;;;5047954;28;20060;-70
2022/06/23 03:54:14;;;;;;;0.00;0.00;;;15.20;81.60;;;;;;5048491;28;20067;-70
2022/06/23 03:57:10;;;;;;;0.00;0.00;;;15.20;81.90;;;;;;5042766;28;20052;-70
2022/06/23 04:00:04;;;;;;;0.03;0.03;;;15.20;81.70;;;;;;5048690;28;20090;-72
2022/06/23 04:02:43;;;;;;;0.00;0.00;;;15.10;81.70;;;;;;5049190;28;20043;-72
2022/06/23 04:05:29;;;;;;;0.00;0.00;;;15.10;81.70;;;;;;5049188;28;20033;-69
2022/06/23 04:08:00;;;;;;;0.00;0.00;;;15.20;82.00;;;;;;5048926;28;20041;-71
2022/06/23 04:10:36;;;;;;;0.00;0.00;;;15.20;82.10;;;;;;5064476;28;20053;-71
2022/06/23 04:13:20;;;;;;;0.00;0.00;;;15.20;81.90;;;;;;5049631;28;20052;-71
2022/06/23 04:15:49;;;;;;;0.00;0.00;;;15.20;82.10;;;;;;5051085;28;20053;-71
2022/06/23 04:18:23;;;;;;;0.00;0.00;;;15.30;82.10;;;;;;5049177;28;20666;-72
2022/06/23 04:21:15;;;;;;;0.00;0.00;;;15.20;81.90;;;;;;5048843;28;20087;-71
2022/06/23 04:23:48;;;;;;;0.00;0.00;;;15.30;82.00;;;;;;5048797;28;20080;-70
2022/06/23 04:26:20;;;;;;;0.00;0.00;;;15.20;82.10;;;;;;5043339;28;20050;-70
2022/06/23 04:29:11;;;;;;;0.00;0.00;;;15.30;82.00;;;;;;5050574;28;20445;-71
2022/06/23 04:31:42;;;;;;;0.00;0.00;;;15.30;82.30;;;;;;5024020;28;20057;-71
2022/06/23 04:34:25;;;;;;;0.00;0.00;;;15.30;82.30;;;;;;5030351;28;20041;-71
2022/06/23 04:36:51;;;;;;;0.00;0.00;;;15.40;82.40;;;;;;5046329;28;20044;-71
2022/06/23 04:39:37;;;;;;;0.00;0.00;;;15.40;82.30;;;;;;5049713;28;20048;-71
2022/06/23 04:42:07;;;;;;;0.00;0.00;;;15.50;82.30;;;;;;5049423;28;20072;-71
2022/06/23 04:44:36;;;;;;;0.00;0.00;;;15.50;82.50;;;;;;5049374;28;20048;-71
2022/06/23 04:47:22;;;;;;;0.00;0.00;;;15.60;82.30;;;;;;5049198;28;20048;-71
2022/06/23 04:49:53;;;;;;;0.00;0.00;;;15.60;82.20;;;;;;5049140;28;20084;-70
2022/06/23 04:52:46;;;;;;;0.00;0.00;;;15.60;82.10;;;;;;5049106;28;20522;-70
2022/06/23 04:55:18;;;;;;;0.00;0.00;;;15.60;82.20;;;;;;5049132;28;20067;-70
2022/06/23 04:57:56;;;;;;;0.00;0.00;;;15.70;82.00;;;;;;5049387;28;20112;-70
2022/06/23 05:00:39;;;;;;;0.00;0.00;;;15.80;82.00;;;;;;5048879;28;20044;-70
2022/06/23 05:03:32;;;;;;;0.00;0.00;;;15.80;82.30;;;;;;5042100;28;20051;-70
2022/06/23 05:06:11;;;;;;;0.00;0.00;;;15.90;82.20;;;;;;5024034;28;20064;-71
2022/06/23 05:08:41;;;;;;;0.00;0.00;;;16.00;81.80;;;;;;5047831;28;20441;-70
2022/06/23 05:11:14;;;;;;;0.00;0.00;;;16.00;81.80;;;;;;5047997;28;20052;-71
2022/06/23 05:13:50;;;;;;;0.00;0.00;;;16.00;81.80;;;;;;5047584;28;20059;-71
2022/06/23 05:16:34;;;;;;;0.00;0.00;;;16.10;81.70;;;;;;5047158;28;20118;-70
2022/06/23 05:19:08;;;;;;;0.00;0.00;;;16.10;81.60;;;;;;5048508;28;20074;-70
2022/06/23 05:21:40;;;;;;;0.00;0.00;;;16.10;81.60;;;;;;5047692;28;20521;-70
2022/06/23 05:24:14;;;;;;;0.00;0.00;;;16.20;81.40;;;;;;5048137;28;20037;-70
2022/06/23 05:26:54;;;;;;;0.00;0.00;;;16.20;81.40;;;;;;5047560;28;20125;-70
2022/06/23 05:29:50;;;;;;;0.00;0.00;;;16.20;81.20;;;;;;5042399;28;20045;-70
2022/06/23 05:32:21;;;;;;;0.00;0.00;;;16.30;81.30;;;;;;5047568;28;20498;-70
2022/06/23 05:35:13;;;;;;;0.00;0.00;;;16.40;81.20;;;;;;5062312;28;20076;-70
2022/06/23 05:37:58;;;;;;;0.00;0.00;;;16.50;81.10;;;;;;5040266;28;20107;-70
2022/06/23 05:40:34;;;;;;;0.00;0.00;;;16.50;81.10;;;;;;5047725;28;20059;-70
2022/06/23 05:43:01;;;;;;;0.00;0.00;;;16.60;81.10;;;;;;5048853;28;20045;-70
2022/06/23 05:45:41;;;;;;;0.30;0.30;;;16.60;81.00;;;;;;5048758;28;20107;-69
2022/06/23 05:48:11;;;;;;;0.00;0.00;;;16.60;80.90;;;;;;5046120;28;20496;-71
2022/06/23 05:50:53;;;;;;;0.00;0.00;;;16.70;81.30;;;;;;5050496;28;20045;-71
2022/06/23 05:53:34;;;;;;;0.30;0.30;;;16.70;81.20;;;;;;5048732;28;20079;-68
2022/06/23 05:56:12;;;;;;;0.00;0.00;;;16.80;81.30;;;;;;5049611;28;20045;-69
2022/06/23 05:58:50;;;;;;;0.00;0.00;;;16.90;81.30;;;;;;5049605;28;20061;-69
2022/06/23 06:01:36;;;;;;;0.00;0.00;;;16.90;81.20;;;;;;5050556;28;20048;-69
2022/06/23 06:04:15;;;;;;;0.00;0.00;;;17.00;81.30;;;;;;5049992;28;20126;-70
2022/06/23 06:06:45;;;;;;;0.00;0.00;;;17.10;81.10;;;;;;5049474;28;20076;-72
2022/06/23 06:12:00;;;;;;;0.00;0.00;;;17.20;81.00;;;;;;5055278;28;20548;-70
2022/06/23 06:14:30;;;;;;;0.00;0.00;;;17.30;80.80;;;;;;5051766;28;20048;-68
2022/06/23 06:16:57;;;;;;;0.00;0.00;;;17.30;80.70;;;;;;5049343;28;20049;-69
2022/06/23 06:19:24;;;;;;;0.00;0.00;;;17.40;80.80;;;;;;5042483;28;20084;-69
2022/06/23 06:21:56;;;;;;;0.00;0.00;;;17.60;81.40;;;;;;5037826;28;20037;-70
2022/06/23 06:24:35;;;;;;;;;;;17.80;80.60;;;;;;5050724;28;20076;-70
2022/06/23 06:27:03;;;;;;;0.00;0.00;;;17.90;80.30;;;;;;5031008;28;19974;-69
2022/06/23 06:29:34;;;;;;;0.00;0.00;;;17.90;80.10;;;;;;5041178;28;20044;-69
2022/06/23 06:32:06;;;;;;;0.00;0.00;;;18.00;79.90;;;;;;5050435;28;20045;-69
2022/06/23 06:34:38;;;;;;;0.00;0.00;;;18.00;79.70;;;;;;5050591;28;20056;-70
2022/06/23 06:37:08;;;;;;;0.00;0.00;;;18.00;79.50;;;;;;5050282;28;20052;-69
2022/06/23 06:39:38;;;;;;;0.00;0.00;;;18.00;79.40;;;;;;5049438;28;20090;-69
2022/06/23 06:42:14;;;;;;;0.00;0.00;;;18.10;79.30;;;;;;5048621;28;20088;-70
2022/06/23 06:44:45;;;;;;;0.00;0.00;;;18.10;79.30;;;;;;5051060;28;20418;-70
2022/06/23 06:47:25;;;;;;;0.00;0.00;;;18.10;79.20;;;;;;5050417;28;20044;-69
2022/06/23 06:49:53;;;;;;;0.00;0.00;;;18.20;79.10;;;;;;5048053;28;20044;-70
2022/06/23 06:52:19;;;;;;;0.00;0.00;;;18.30;79.00;;;;;;5049097;28;20041;-69
2022/06/23 06:54:59;;;;;;;0.00;0.00;;;18.30;79.00;;;;;;5049148;28;20044;-71
2022/06/23 06:57:36;;;;;;;0.00;0.00;;;18.40;78.80;;;;;;5047371;28;20072;-70
2022/06/23 07:00:08;;;;;;;0.00;0.00;;;18.50;78.70;;;;;;5037850;28;20047;-71
2022/06/23 07:02:37;;;;;;;;;;;18.50;78.60;;;;;;5037892;28;20045;-71
2022/06/23 07:05:17;;;;;;;0.00;0.00;;;18.60;78.50;;;;;;5047626;28;19920;-70
2022/06/23 07:07:46;;;;;;;0.00;0.00;;;18.60;78.40;;;;;;5049857;28;20039;-70
2022/06/23 07:10:44;;;;;;;0.00;0.00;;;18.80;78.30;;;;;;5050276;28;20059;-70
2022/06/23 07:13:35;;;;;;;0.00;0.00;;;18.80;78.00;;;;;;5049743;28;20498;-70
2022/06/23 07:16:05;;;;;;;0.00;0.00;;;18.90;78.00;;;;;;5050617;28;20045;-71
2022/06/23 07:18:50;;;;;;;0.00;0.00;;;19.00;77.90;;;;;;5065151;28;20049;-71
2022/06/23 07:21:28;;;;;;;0.95;0.52;;;19.00;77.30;;;;;;5049855;28;20041;-71
2022/06/23 07:24:20;;;;;;;0.00;0.00;;;19.10;77.10;;;;;;5050060;28;20075;-71
2022/06/23 07:26:56;;;;;;;0.00;0.00;;;19.20;77.10;;;;;;5050021;28;20120;-71
2022/06/23 07:29:44;;;;;;;0.10;0.10;;;19.20;77.30;;;;;;5049408;28;20045;-71
2022/06/23 07:32:31;;;;;;;0.00;0.00;;;19.30;77.50;;;;;;5049432;28;20049;-71
2022/06/23 07:35:21;;;;;;;0.10;0.10;;;19.40;76.90;;;;;;5049637;28;20383;-70
2022/06/23 07:37:58;;;;;;;0.00;0.00;;;19.50;76.70;;;;;;5049732;28;20033;-70
2022/06/23 07:40:27;;;;;;;0.00;0.00;;;19.50;76.70;;;;;;5049422;28;20045;-70
2022/06/23 07:43:12;;;;;;;0.00;0.00;;;19.60;76.80;;;;;;5049023;28;20386;-70
2022/06/23 07:45:49;;;;;;;0.00;0.00;;;19.60;76.70;;;;;;5049784;28;20045;-70
2022/06/23 07:48:14;;;;;;;0.20;0.20;;;19.70;76.70;;;;;;5047950;28;20402;-70
2022/06/23 07:50:40;;;;;;;0.00;0.00;;;19.80;76.70;;;;;;5049179;28;20130;-70
2022/06/23 07:53:20;;;;;;;0.00;0.00;;;19.90;76.00;;;;;;5048841;28;20102;-68
2022/06/23 07:55:48;;;;;;;0.00;0.00;;;20.00;75.70;;;;;;5049553;28;20053;-72
2022/06/23 07:58:17;;;;;;;0.00;0.00;;;20.10;75.60;;;;;;5049116;28;20161;-73
2022/06/23 08:00:46;;;;;;;0.00;0.00;;;20.10;75.40;;;;;;5049144;28;20167;-73
2022/06/23 08:03:22;;;;;;;0.00;0.00;;;20.20;75.20;;;;;;5049533;28;20045;-73
2022/06/23 08:06:10;;;;;;;0.00;0.00;;;20.30;75.20;;;;;;5049435;28;20673;-75
2022/06/23 08:08:38;;;;;;;0.00;0.00;;;20.40;75.10;;;;;;5049221;28;20037;-70
2022/06/23 08:14:03;;;;;;;0.00;0.00;;;20.50;74.70;;;;;;5049619;28;20053;-70
2022/06/23 08:16:49;;;;;;;0.00;0.00;;;20.60;74.40;;;;;;5049308;28;20041;-71
2022/06/23 08:19:42;;;;;;;0.00;0.00;;;20.70;73.80;;;;;;5049496;28;20092;-71
2022/06/23 08:22:20;;;;;;;0.00;0.00;;;20.80;73.70;;;;;;5048925;28;20041;-71
2022/06/23 08:24:50;;;;;;;0.00;0.00;;;20.90;73.20;;;;;;5048318;28;20076;-70
2022/06/23 08:27:19;;;;;;;0.00;0.00;;;21.00;73.10;;;;;;5029673;28;20124;-70
2022/06/23 08:29:53;;;;;;;0.00;0.00;;;21.10;72.60;;;;;;5048314;28;20052;-70
2022/06/23 08:32:20;;;;;;;0.00;0.00;;;21.10;72.40;;;;;;5049179;28;20156;-70
2022/06/23 08:35:09;;;;;;;0.00;0.00;;;21.20;71.70;;;;;;5049127;28;20037;-71
2022/06/23 08:37:41;;;;;;;0.00;0.00;;;21.30;71.30;;;;;;5049077;28;20037;-70
2022/06/23 08:40:22;;;;;;;0.00;0.00;;;21.30;70.60;;;;;;5049193;28;20102;-71
2022/06/23 08:43:14;;;;;;;0.00;0.00;;;21.50;70.60;;;;;;5048148;28;20045;-71
2022/06/23 08:45:54;;;;;;;0.00;0.00;;;21.50;70.40;;;;;;5039247;28;20052;-71
2022/06/23 08:48:33;;;;;;;0.00;0.00;;;21.60;70.40;;;;;;5040568;28;20051;-70
2022/06/23 08:51:19;;;;;;;0.13;0.13;;;21.70;70.40;;;;;;5063602;28;20056;-70
2022/06/23 08:54:01;;;;;;;0.00;0.00;;;21.90;69.90;;;;;;5048223;28;20074;-70
2022/06/23 08:56:43;;;;;;;0.00;0.00;;;21.90;69.30;;;;;;5048634;28;20049;-70
2022/06/23 08:59:25;;;;;;;0.00;0.00;;;22.00;68.60;;;;;;5048000;28;20061;-70
2022/06/23 09:02:14;;;;;;;0.00;0.00;;;22.10;68.90;;;;;;5045650;28;20486;-71
2022/06/23 09:05:12;;;;;;;0.00;0.00;;;22.10;67.40;;;;;;5049263;28;20468;-70
2022/06/23 09:07:46;;;;;;;0.00;0.00;;;22.20;67.50;;;;;;5041581;28;20132;-70
2022/06/23 09:10:14;;;;;;;0.00;0.00;;;22.30;68.30;;;;;;5052457;28;20199;-69
2022/06/23 09:12:59;;;;;;;0.00;0.00;;;22.30;68.00;;;;;;5047123;28;20523;-69
2022/06/23 09:15:53;;;;;;;0.00;0.00;;;22.40;68.10;;;;;;5035024;28;20049;-70
2022/06/23 09:19:01;;;;;;;0.00;0.00;;;22.50;66.60;;;;;;5051635;28;20041;-70
2022/06/23 09:21:49;;;;;;;0.00;0.00;;;22.60;66.60;;;;;;5044540;28;20497;-70
2022/06/23 09:24:53;;;;;;;0.00;0.00;;;22.60;66.40;;;;;;5052306;28;20053;-70
2022/06/23 09:27:51;;;;;;;0.00;0.00;;;22.70;65.90;;;;;;5052032;28;20048;-69
2022/06/23 09:30:42;;;;;;;0.00;0.00;;;22.80;65.90;;;;;;5052266;28;20603;-72
2022/06/23 09:33:45;;;;;;;0.00;0.00;;;22.90;66.10;;;;;;5052036;28;20055;-70
2022/06/23 09:36:57;;;;;;;0.00;0.00;;;23.00;65.60;;;;;;5036497;28;20521;-70
2022/06/23 09:39:54;;;;;;;0.00;0.00;;;23.10;66.30;;;;;;5029755;28;20060;-71
2022/06/23 09:42:49;;;;;;;0.00;0.00;;;23.20;65.60;;;;;;5012046;28;20084;-70
2022/06/23 09:45:42;;;;;;;0.00;0.00;;;23.30;64.50;;;;;;5030271;28;20050;-71
2022/06/23 09:48:32;;;;;;;0.00;0.00;;;23.50;65.60;;;;;;5047518;28;20583;-70
2022/06/23 09:51:26;;;;;;;0.00;0.00;;;23.60;65.60;;;;;;5051302;28;20044;-70
2022/06/23 09:54:04;;;;;;;0.28;0.20;;;23.70;64.70;;;;;;5052503;28;20087;-74
2022/06/23 09:56:54;;;;;;;0.00;0.00;;;23.80;65.00;;;;;;5050855;28;20049;-69
2022/06/23 09:59:44;;;;;;;0.00;0.00;;;23.80;64.20;;;;;;5034253;28;20049;-69
2022/06/23 10:02:31;;;;;;;0.00;0.00;;;23.90;63.90;;;;;;5032747;28;20088;-69
2022/06/23 10:05:08;;;;;;;0.00;0.00;;;24.00;63.80;;;;;;5048080;28;20051;-69
2022/06/23 10:07:52;;;;;;;0.00;0.00;;;24.00;63.00;;;;;;5051390;28;20355;-69
2022/06/23 10:10:21;;;;;;;0.00;0.00;;;24.10;63.30;;;;;;5048614;28;20041;-69
2022/06/23 10:13:23;;;;;;;0.00;0.00;;;24.20;63.40;;;;;;5050391;28;20136;-69
2022/06/23 10:16:00;;;;;;;0.10;0.10;;;24.20;61.20;;;;;;5049945;28;20457;-69
2022/06/23 10:18:46;;;;;;;0.00;0.00;;;24.40;61.40;;;;;;5051182;28;20048;-69
2022/06/23 10:21:48;;;;;;;0.00;0.00;;;24.40;60.70;;;;;;5042212;28;20111;-68
2022/06/23 10:24:47;;;;;;;0.00;0.00;;;24.50;59.50;;;;;;5048165;28;20106;-68
2022/06/23 10:27:45;;;;;;;0.00;0.00;;;24.70;57.50;;;;;;5031045;28;20392;-69
2022/06/23 10:30:15;;;;;;;0.00;0.00;;;24.90;58.90;;;;;;5040370;28;20076;-69
2022/06/23 10:32:50;;;;;;;0.00;0.00;;;25.00;58.60;;;;;;5050195;28;20094;-69
2022/06/23 10:35:34;;;;;;;0.00;0.00;;;25.00;58.10;;;;;;5050507;28;20495;-69
2022/06/23 10:38:22;;;;;;;0.00;0.00;;;25.20;58.70;;;;;;5050551;28;20048;-69
2022/06/23 10:41:09;;;;;;;0.00;0.00;;;25.30;57.00;;;;;;5049310;28;20575;-69
2022/06/23 10:43:38;;;;;;;0.00;0.00;;;25.40;58.30;;;;;;5049285;28;20486;-76
2022/06/23 10:46:14;;;;;;;0.00;0.00;;;25.50;58.00;;;;;;5048339;28;20049;-69
2022/06/23 10:49:06;;;;;;;0.00;0.00;;;25.50;56.60;;;;;;5042985;28;20095;-69
2022/06/23 10:52:08;;;;;;;0.00;0.00;;;25.60;57.40;;;;;;5036533;28;20036;-69
2022/06/23 10:54:53;;;;;;;0.00;0.00;;;25.70;56.90;;;;;;5040610;28;20037;-69
2022/06/23 10:57:24;;;;;;;0.00;0.00;;;25.80;55.50;;;;;;5038463;28;20066;-67
2022/06/23 11:00:08;;;;;;;0.00;0.00;;;25.90;57.30;;;;;;5048064;28;20077;-69
2022/06/23 11:03:04;;;;;;;0.00;0.00;;;26.00;56.80;;;;;;5046544;28;20095;-69
2022/06/23 11:05:48;;;;;;;0.00;0.00;;;26.00;56.90;;;;;;5045086;28;20045;-69
2022/06/23 11:08:40;;;;;;;0.00;0.00;;;26.20;56.70;;;;;;5050133;28;20458;-69
2022/06/23 11:11:25;;;;;;;0.00;0.00;;;26.30;58.10;;;;;;5046448;28;20052;-69
2022/06/23 11:14:10;;;;;;;0.00;0.00;;;26.40;55.60;;;;;;5049733;28;20049;-69
2022/06/23 11:17:04;;;;;;;0.00;0.00;;;26.50;53.10;;;;;;5048109;28;20033;-70
2022/06/23 11:19:45;;;;;;;0.00;0.00;;;26.50;55.30;;;;;;5048843;28;20164;-69
2022/06/23 11:22:40;;;;;;;0.00;0.00;;;26.60;55.20;;;;;;5048452;28;20064;-69
2022/06/23 11:25:29;;;;;;;0.00;0.00;;;26.70;55.90;;;;;;5048547;28;20089;-69
2022/06/23 11:28:17;;;;;;;0.00;0.00;;;26.80;55.10;;;;;;5045919;28;20055;-69
2022/06/23 11:31:12;;;;;;;0.05;0.05;;;27.00;56.50;;;;;;5048615;28;20524;-79
2022/06/23 11:34:01;;;;;;;0.00;0.00;;;27.00;54.00;;;;;;5049189;28;20102;-68
2022/06/23 11:36:27;;;;;;;0.00;0.00;;;27.10;54.10;;;;;;5043808;28;20060;-68
2022/06/23 11:39:13;;;;;;;0.00;0.00;;;27.20;52.80;;;;;;5047991;28;20037;-68
2022/06/23 11:41:51;;;;;;;0.38;0.38;;;27.30;53.60;;;;;;5044980;28;20080;-69
2022/06/23 11:44:40;;;;;;;0.00;0.00;;;27.40;52.80;;;;;;5049215;28;20528;-69
2022/06/23 11:47:34;;;;;;;0.00;0.00;;;27.40;53.30;;;;;;5047930;28;20100;-69
2022/06/23 11:50:17;;;;;;;0.00;0.00;;;27.50;53.30;;;;;;5044725;28;20052;-68
2022/06/23 11:53:07;;;;;;;0.00;0.00;;;27.50;53.00;;;;;;5048805;28;20052;-68
2022/06/23 11:55:39;;;;;;;0.00;0.00;;;27.60;53.20;;;;;;5038537;28;20041;-67
2022/06/23 11:58:13;;;;;;;0.00;0.00;;;27.80;54.40;;;;;;5048735;28;20048;-72
2022/06/23 12:00:57;;;;;;;0.20;0.20;;;27.80;52.90;;;;;;5045168;28;20502;-67
2022/06/23 12:03:55;;;;;;;0.00;0.00;;;27.90;53.30;;;;;;5028411;28;20052;-67
2022/06/23 12:06:40;;;;;;;0.00;0.00;;;28.00;51.10;;;;;;5010805;28;20046;-67
2022/06/23 12:09:37;;;;;;;0.00;0.00;;;28.10;51.80;;;;;;5045122;28;20698;-68
2022/06/23 12:12:05;;;;;;;0.00;0.00;;;28.10;52.20;;;;;;5042980;28;20088;-67
2022/06/23 12:14:32;;;;;;;1.25;1.15;;;28.20;53.40;;;;;;5028461;28;20050;-68
2022/06/23 12:17:05;;;;;;;0.00;0.00;;;28.30;52.20;;;;;;5048528;28;20071;-66
2022/06/23 12:19:44;;;;;;;0.00;0.00;;;28.40;51.80;;;;;;5028922;28;20059;-67
2022/06/23 12:22:26;;;;;;;0.00;0.00;;;28.40;50.10;;;;;;5037476;28;20041;-67
2022/06/23 12:25:05;;;;;;;0.00;0.00;;;28.40;51.50;;;;;;5048840;28;20073;-67
2022/06/23 12:27:46;;;;;;;0.00;0.00;;;28.50;49.50;;;;;;5047944;28;20045;-67
2022/06/23 12:30:16;;;;;;;;;;;28.50;51.00;;;;;;5048375;28;20461;-67
2022/06/23 12:33:11;;;;;;;0.00;0.00;;;28.60;52.10;;;;;;5048459;28;19921;-69
2022/06/23 12:35:59;;;;;;;0.00;0.00;;;28.80;52.80;;;;;;5049097;28;20522;-70
2022/06/23 12:39:00;;;;;;;0.00;0.00;;;28.90;52.60;;;;;;5049356;28;20049;-70
2022/06/23 12:41:33;;;;;;;0.00;0.00;;;28.90;52.50;;;;;;5031686;28;20156;-70
2022/06/23 12:44:11;;;;;;;0.10;0.10;;;29.00;49.60;;;;;;5033244;28;20045;-70
2022/06/23 12:46:39;;;;;;;0.00;0.00;;;29.10;51.30;;;;;;5049895;28;20398;-70
2022/06/23 12:49:11;;;;;;;0.00;0.00;;;29.20;48.90;;;;;;5052570;28;20041;-70
2022/06/23 12:51:39;;;;;;;0.10;0.10;;;29.30;50.30;;;;;;5052606;28;20490;-70
2022/06/23 12:54:48;;;;;;;0.00;0.00;;;29.40;49.20;;;;;;5053069;28;20049;-70
2022/06/23 12:57:51;;;;;;;0.00;0.00;;;29.50;47.10;;;;;;5043579;28;20517;-68
2022/06/23 13:00:27;;;;;;;0.00;0.00;;;29.70;51.30;;;;;;5049124;28;20395;-68
2022/06/23 13:02:57;;;;;;;0.00;0.00;;;29.70;46.80;;;;;;5051072;28;20077;-72
2022/06/23 13:05:37;;;;;;;0.00;0.00;;;29.80;50.10;;;;;;5052472;28;20041;-69
2022/06/23 13:08:22;;;;;;;0.00;0.00;;;29.90;46.90;;;;;;5051276;28;20452;-68
2022/06/23 13:11:03;;;;;;;0.00;0.00;;;30.00;47.10;;;;;;5051714;28;20061;-68
2022/06/23 13:13:32;;;;;;;0.00;0.00;;;30.00;47.20;;;;;;5051912;28;20041;-68
2022/06/23 13:16:06;;;;;;;0.00;0.00;;;30.00;44.60;;;;;;5052055;28;20127;-70
2022/06/23 13:18:40;;;;;;;0.00;0.00;;;30.20;45.70;;;;;;5065782;28;20052;-67
2022/06/23 13:21:31;;;;;;;0.00;0.00;;;30.20;46.60;;;;;;5052135;28;20502;-68
2022/06/23 13:24:12;;;;;;;0.20;0.20;;;30.40;46.50;;;;;;5051272;28;20048;-67
2022/06/23 13:26:48;;;;;;;1.88;0.95;;;30.50;46.50;;;;;;5049059;28;20045;-68
2022/06/23 13:29:25;;;;;;;0.00;0.00;;;30.50;46.00;;;;;;5034755;28;20495;-68
2022/06/23 13:32:17;;;;;;;0.00;0.00;;;30.60;47.20;;;;;;5040523;28;20045;-67
2022/06/23 13:35:01;;;;;;;0.00;0.00;;;30.70;45.40;;;;;;5032565;28;20112;-67
2022/06/23 13:37:46;;;;;;;0.00;0.00;;;30.90;43.50;;;;;;5049973;28;20052;-67
2022/06/23 13:40:30;;;;;;;0.00;0.00;;;30.90;45.10;;;;;;5049065;28;20041;-66
2022/06/23 13:43:12;;;;;;;0.00;0.00;;;31.00;43.00;;;;;;5031814;28;20053;-67
2022/06/23 13:45:45;;;;;;;0.15;0.05;;;31.10;44.50;;;;;;5034788;28;20103;-66
2022/06/23 13:48:18;;;;;;;0.00;0.00;;;31.20;43.00;;;;;;5051641;28;20041;-66
2022/06/23 13:51:13;;;;;;;0.00;0.00;;;31.30;42.90;;;;;;5045552;28;20043;-66
2022/06/23 13:53:48;;;;;;;0.00;0.00;;;31.50;44.80;;;;;;5047637;28;20061;-66
2022/06/23 13:56:34;;;;;;;0.00;0.00;;;31.50;44.60;;;;;;5051032;28;20052;-66
2022/06/23 13:59:14;;;;;;;0.00;0.00;;;31.60;42.30;;;;;;5050009;28;20072;-66
2022/06/23 14:01:47;;;;;;;0.00;0.00;;;31.70;44.40;;;;;;5050100;28;20041;-66
2022/06/23 14:04:38;;;;;;;0.00;0.00;;;31.80;42.00;;;;;;5051476;28;20075;-66
2022/06/23 14:07:09;;;;;;;0.00;0.00;;;31.90;42.70;;;;;;5013290;28;20190;-66
2022/06/23 14:09:39;;;;;;;0.00;0.00;;;32.00;41.70;;;;;;5040457;28;20076;-66